CYZFCYHY

Guest
Details From CYZF - YELLOWKNIFE
To CYHY - HAY RIVER
Flight Number -
Tags generated
Created
Modified
Stats Distance 105 nm / 194 km
Max Altitude 10,700 ft / 3,261 m
Waypoints 3
Social Downloads 5
Likes 0
Share VATSIM

Download

Looking for another format? Having issues loading an existing format? Contact us
Advertisement - Login to hide

Notes

Basic altitude profile: - Ascent Rate: 2500ft/min - Ascent Speed: 250kts - Cruise Altitude: 35000ft - Cruise Speed: 420kts - Descent Rate: 1500ft/min - Descent Speed: 250kts Options: - Use NATs: yes - Use PACOTS: yes - Use low airways: yes - Use high airways: yes

Route

CYZF NAKTO CYHY

ID Type Via Altitude Latitude Longitude Leg Dist Tot Dist Heading (true) Name
O CYZF APT - 0 ft / 0 m 62.46567˚ -114.44142˚ - 0 nm - YELLOWKNIFE
NAKTO FIX - 10,700 ft / 3,261 m 61.69444˚ -115.10222˚ 49 nm 49 nm 202° / 202° -
O CYHY APT - 0 ft / 0 m 60.84062˚ -115.78424˚ 54 nm 104 nm 201° / 201° HAY RIVER

Altitude Profile

Advertisement - Login to hide

CYZF

Details ICAO CYZF (YZF)
Name YELLOWKNIFE
Region Canada
Timezone America/Yellowknife (UTC-6.0)
Stats Elevation 675 ft / 206 m (AMSL)
Location 62.465666° -114.441417°
Runways 2
Magnetic Variation 16.456° E

METAR

CYZF 220100Z 14014KT 15SM FEW140 SCT230 20/01 A2975 RMK AC1CI3 SLP084 DENSITY ALT 1700FT

Decode

TAF

TAF CYZF 212338Z 2200/2224 16012G22KT P6SM FEW140 BECMG 2202/2204 12010KT FM220700 12008KT P6SM SCT100 TEMPO 2207/2213 BKN100 BECMG 2210/2212 VRB03KT FM221500 20008KT P6SM SCT200 RMK NXT FCST BY 220600Z

Decode

Departure Runways

ID Width Length Bearing (true) Bearing (mag) Surface Threshold Offset Overrun Length
09 150 ft / 46 m 4,902 ft / 1,494 m 116.52° 100.06° Asphalt 0 ft / 0 m 0 ft / 0 m
15 150 ft / 46 m 7,441 ft / 2,268 m 175.66° 159.20° Asphalt 0 ft / 0 m 0 ft / 0 m
27 150 ft / 46 m 4,902 ft / 1,494 m 296.54° 280.08° Asphalt 0 ft / 0 m 0 ft / 0 m
33 150 ft / 46 m 7,441 ft / 2,268 m 355.67° 339.21° Asphalt 0 ft / 0 m 0 ft / 0 m

CYHY

Details ICAO CYHY (YHY)
Name HAY RIVER
Region Canada
Timezone America/Yellowknife (UTC-6.0)
Stats Elevation 543 ft / 166 m (AMSL)
Location 60.840621° -115.784243°
Runways 2
Magnetic Variation 16.841° E

METAR

CYHY 220100Z 13010G16KT 15SM BKN230 28/04 A2967 RMK CS6 SLP055 DENSITY ALT 2400FT

Decode

TAF

TAF AMD TAF AMD CYHY 220016Z 2200/2212 16013KT P6SM SCT230 BECMG 2202/2204 VRB03KT FM220900 VRB03KT P6SM SCT100 TEMPO 2209/2212 BKN090 RMK NXT FCST BY 220600Z

Decode

Destination Runways

ID Width Length Bearing (true) Bearing (mag) Surface Threshold Offset Overrun Length
04 150 ft / 46 m 4,043 ft / 1,232 m 66.34° 49.50° Dirt 0 ft / 0 m 0 ft / 0 m
13 150 ft / 46 m 6,056 ft / 1,846 m 156.90° 140.06° Asphalt 0 ft / 0 m 0 ft / 0 m
22 150 ft / 46 m 4,043 ft / 1,232 m 246.36° 229.52° Dirt 0 ft / 0 m 0 ft / 0 m
31 150 ft / 46 m 6,056 ft / 1,846 m 336.92° 320.08° Asphalt 0 ft / 0 m 0 ft / 0 m

Popular Alternatives